<<    September 2012    >>
Datum    Temp.       Tempmin      Tempmax    Taup.       Taup.min      Taup.max    Feuchte    Feuchtemin    Feuchtemax    Druck    Druckmin    Druckmax    Regen    Wind    Benmax  
  01.09.2012  14,7    11,3    23:59    19,5    14:25  9,2    6,1    14:43    11,5    01:24  72,6    44    14:43    94    01:24  1026,2    1024    00:00    1028    11:34  0,0  2,2  13,7  
  02.09.2012  16,0    9,9    05:08    23,8    15:51  9,8    7,1    17:37    12,3    11:32  70,2    36    17:33    95    05:58  1025,0    1023    15:18    1027    00:00  0,0  1,1  13,7  
  03.09.2012  16,7    11,9    06:37    21,2    17:54  13,0    10,9    06:27    15,0    12:25  79,8    62    14:50    96    07:30  1024,3    1023    14:48    1026    06:48  0,0  0,9  10,1  
  04.09.2012  17,7    10,9    06:55    25,1    15:48  11,9    9,6    14:46    16,0    11:04  72,9    38    15:54    98    07:12  1022,0    1019    17:18    1024    00:00  0,0  1,0  10,1  
  05.09.2012  17,9    14,6    23:59    22,0    14:18  11,3    5,5    16:11    16,3    09:01  68,5    36    14:26    95    07:00  1021,6    1019    02:48    1026    23:32  0,0  2,8  19,4  
  06.09.2012  15,6    11,8    23:57    20,6    16:33  8,1    5,0    14:30    11,3    09:24  63,6    37    16:38    86    07:49  1026,8    1025    00:00    1029    14:18  0,0  1,2  9,7  
  07.09.2012  16,7    9,5    07:04    24,9    16:16  8,6    5,9    15:12    11,2    11:08  63,1    31    15:07    88    07:34  1024,5    1022    17:32    1026    00:00  0,0  1,6  15,5  
  08.09.2012  18,8    12,3    07:13    26,9    16:25  10,3    7,8    15:42    13,2    11:11  61,9    31    15:42    87    08:08  1021,0    1017    17:32    1023    00:00  0,0  0,8  10,1  
  09.09.2012  20,8    13,3    05:12    30,8    15:17  9,8    5,3    16:54    13,4    11:32  55,5    21    15:50    86    05:49  1014,6    1011    15:33    1019    02:47  0,0  1,5  15,8  
  10.09.2012  21,3    14,4    06:52    29,2    17:15  11,5    8,7    00:02    15,6    23:01  56,2    32    17:22    77    07:10  1013,1    1011    17:01    1015    09:01  0,0  0,8  13,7  
  11.09.2012  19,0    14,4    23:28    24,5    13:51  14,6    12,1    14:26    17,1    10:23  76,9    47    14:09    94    21:02  1011,4    1009    12:31    1014    23:59  0,9  1,8  25,2  
  12.09.2012  13,0    9,7    23:59    16,0    14:55  9,3    5,1    18:12    13,1    00:01  78,9    53    18:12    92    00:01  1013,8    1012    17:31    1015    11:46  1,8  1,7  15,1  
  13.09.2012  12,3    9,3    01:56    15,6    14:02  10,4    6,9    01:56    13,8    13:13  88,2    80    15:09    98    09:23  1016,2    1013    00:01    1019    17:45  3,9  0,7  6,8  
  14.09.2012  13,4    9,8    06:15    17,2    14:56  11,1    9,3    07:02    13,6    20:49  87,2    67    14:40    98    23:59  1014,6    1011    15:30    1018    00:00  1,9  2,4  21,2  
  15.09.2012  15,0    11,3    23:59    19,7    16:41  11,6    8,2    17:01    14,5    09:42  82,0    48    17:01    98    00:00  1016,9    1014    00:00    1019    19:15  0,0  1,1  12,6  
  16.09.2012  16,0    10,1    06:50    23,9    16:50  10,6    9,0    02:37    13,8    11:28  74,0    40    16:29    98    06:50  1015,6    1011    20:30    1019    03:00  0,0  1,2  10,1  
  17.09.2012  15,6    11,6    06:02    20,0    15:16  11,9    10,2    04:31    13,3    09:12  79,3    62    15:31    95    08:00  1013,7    1011    00:15    1016    11:45  0,0  1,3  11,9  
  18.09.2012  15,2    11,4    23:59    19,7    11:51  10,6    6,1    23:59    14,3    10:09  76,1    52    18:08    98    06:29  1012,4    1011    05:59    1015    23:44  0,0  2,2  20,2  
  19.09.2012  12,3    8,7    07:27    17,2    14:21  5,6    2,2    16:21    8,9    10:50  65,8    39    16:21    91    07:59  1019,3    1015    00:00    1024    22:59  0,0  2,7  20,5  
  20.09.2012  11,7    6,5    05:01    18,9    14:01  4,2    0,9    18:39    7,8    10:26  63,3    33    14:35    86    05:18  1023,4    1022    17:29    1025    11:59  0,0  1,1  10,4  
  21.09.2012  12,6    7,3    07:03    19,7    15:40  5,1    3,2    15:18    7,6    21:46  62,9    34    15:18    82    07:37  1017,2    1011    19:43    1023    01:14  0,0  0,7  13,0  
  22.09.2012  12,0    8,1    23:59    17,9    15:17  6,1    1,8    17:58    11,4    10:48  69,5    39    15:30    98    09:13  1016,3    1011    00:43    1022    23:59  0,9  2,2  16,6  
  23.09.2012  12,6    6,6    06:12    18,4    14:35  6,0    4,3    14:15    7,9    09:24  67,0    40    14:14    93    08:11  1014,7    1003    23:59    1022    00:00  0,0  1,3  16,6  
  24.09.2012  16,6    14,4    23:47    22,5    14:06  11,2    6,6    18:23    17,0    12:20  71,1    52    18:23    92    11:37  997,0    992    13:28    1003    00:00  0,9  3,5  28,8  
  25.09.2012  14,5    13,0    06:30    15,9    16:28  10,4    8,4    00:00    12,8    04:48  77,1    65    15:32    94    04:48  998,9    996    05:13    1000    12:59  2,1  3,4  15,8  
  26.09.2012  13,5    12,5    06:10    14,6    15:07  11,6    9,3    00:00    13,9    12:59  88,2    73    00:00    98    06:34  1000,5    998    03:27    1004    22:27  7,6  2,6  14,0  
  27.09.2012  14,1    12,2    08:44    17,7    14:35  11,1    9,0    17:13    14,2    13:24  82,7    58    17:07    98    10:01  1006,2    1003    00:00    1014    23:12  2,7  2,7  16,2  
  28.09.2012  14,3    9,8    06:22    19,6    15:30  9,4    6,4    15:01    11,9    10:37  74,9    43    15:01    96    04:08  1016,3    1013    00:00    1018    09:12  0,0  1,6  11,9  
  29.09.2012  12,7    8,9    04:59    17,9    14:49  8,7    5,6    22:43    11,1    10:42  77,5    49    14:58    94    05:32  1017,1    1015    00:00    1022    22:56  0,0  1,7  20,2  
  30.09.2012  11,0    6,0    04:17    18,0    15:08  5,7    4,3    18:08    8,7    11:24  72,8    41    17:19    95    08:31  1021,8    1019    17:11    1025    11:26  0,0  0,9  10,1  
 
  Gesamt  15,1  6,0            30,8            9,6  0,9            17,1            72,7  21            98            1016,1  992            1029            22,6  1,7  28,8  
 
  Mittelwert  15,1  10,7            20,6            9,6  6,7            12,8            72,7  46,1            93,0            1016,1  1012,8            1019,3            0,8  1,7  15,0  
  Minimum  11,0  6,0            14,6            4,2  0,9            7,6            55,5  21,0            77,0            997,0  992,0            1000,0            0,0  0,7  6,8  
  Maximum  21,3  14,6            30,8            14,6  12,1            17,1            88,2  80,0            98,0            1026,8  1025,0            1029,0            7,6  3,5  28,8  

  Heie Tage    Tmax >=30C     1  
  Sommertage    Tmax >=25C     4  
  Warme Tage    Tmax >=20C     13  
  Kalte Tage    Tmax  <10C     0  
  Frosttage    Tmin  <0C     0  
  Eistage    Tmax  <0C     0  
  Regentage > 0 mm    9  
  Regentage > 2 mm    4  
  Regentage > 10 mm    0  
  Regentage > 20 mm    0